sensor_id;sensor_type;location;lat;lon;timestamp;P1;durP1;ratioP1;P2;durP2;ratioP2
25936;SDS011;13733;51.178;4.450;2024-02-14T00:00:02;11.23;;;5.00;;
25936;SDS011;13733;51.178;4.450;2024-02-14T00:02:29;7.45;;;4.50;;
25936;SDS011;13733;51.178;4.450;2024-02-14T00:04:55;10.00;;;5.05;;
25936;SDS011;13733;51.178;4.450;2024-02-14T00:07:21;7.80;;;4.28;;
25936;SDS011;13733;51.178;4.450;2024-02-14T00:09:47;7.10;;;4.25;;
25936;SDS011;13733;51.178;4.450;2024-02-14T00:12:13;7.03;;;4.72;;
25936;SDS011;13733;51.178;4.450;2024-02-14T00:14:39;6.32;;;4.50;;
25936;SDS011;13733;51.178;4.450;2024-02-14T00:17:05;5.65;;;4.35;;
25936;SDS011;13733;51.178;4.450;2024-02-14T00:19:32;7.72;;;4.65;;
25936;SDS011;13733;51.178;4.450;2024-02-14T00:21:57;6.22;;;4.20;;
25936;SDS011;13733;51.178;4.450;2024-02-14T00:24:24;5.75;;;4.68;;
25936;SDS011;13733;51.178;4.450;2024-02-14T00:26:52;9.77;;;4.68;;
25936;SDS011;13733;51.178;4.450;2024-02-14T00:29:17;8.20;;;4.65;;
25936;SDS011;13733;51.178;4.450;2024-02-14T00:31:43;8.73;;;4.80;;
25936;SDS011;13733;51.178;4.450;2024-02-14T00:34:09;8.02;;;5.10;;
25936;SDS011;13733;51.178;4.450;2024-02-14T00:36:36;7.40;;;4.78;;
25936;SDS011;13733;51.178;4.450;2024-02-14T00:39:02;7.97;;;5.15;;
25936;SDS011;13733;51.178;4.450;2024-02-14T00:41:28;9.10;;;5.05;;
25936;SDS011;13733;51.178;4.450;2024-02-14T00:43:55;6.85;;;5.00;;
25936;SDS011;13733;51.178;4.450;2024-02-14T00:46:21;8.48;;;4.57;;
25936;SDS011;13733;51.178;4.450;2024-02-14T00:48:47;9.95;;;5.10;;
25936;SDS011;13733;51.178;4.450;2024-02-14T00:51:13;8.98;;;5.18;;
25936;SDS011;13733;51.178;4.450;2024-02-14T00:53:39;7.55;;;4.88;;
25936;SDS011;13733;51.178;4.450;2024-02-14T00:56:05;9.38;;;5.40;;
25936;SDS011;13733;51.178;4.450;2024-02-14T00:58:31;8.38;;;5.00;;
25936;SDS011;13733;51.178;4.450;2024-02-14T01:00:57;8.23;;;4.43;;
25936;SDS011;13733;51.178;4.450;2024-02-14T01:03:23;5.75;;;3.95;;
25936;SDS011;13733;51.178;4.450;2024-02-14T01:05:49;6.55;;;4.70;;
25936;SDS011;13733;51.178;4.450;2024-02-14T01:08:14;8.68;;;5.10;;
25936;SDS011;13733;51.178;4.450;2024-02-14T01:10:40;7.47;;;4.80;;
25936;SDS011;13733;51.178;4.450;2024-02-14T01:13:06;7.95;;;5.05;;
25936;SDS011;13733;51.178;4.450;2024-02-14T01:15:32;10.38;;;4.90;;
25936;SDS011;13733;51.178;4.450;2024-02-14T01:18:01;6.22;;;5.25;;
25936;SDS011;13733;51.178;4.450;2024-02-14T01:20:28;7.05;;;4.85;;
25936;SDS011;13733;51.178;4.450;2024-02-14T01:22:54;11.75;;;6.10;;
25936;SDS011;13733;51.178;4.450;2024-02-14T01:25:20;9.90;;;6.70;;
25936;SDS011;13733;51.178;4.450;2024-02-14T01:27:46;7.95;;;6.45;;
25936;SDS011;13733;51.178;4.450;2024-02-14T01:30:14;13.55;;;6.80;;
25936;SDS011;13733;51.178;4.450;2024-02-14T01:32:40;10.82;;;6.35;;
25936;SDS011;13733;51.178;4.450;2024-02-14T01:35:05;10.90;;;6.30;;
25936;SDS011;13733;51.178;4.450;2024-02-14T01:37:32;11.50;;;6.93;;
25936;SDS011;13733;51.178;4.450;2024-02-14T01:39:57;9.95;;;6.07;;
25936;SDS011;13733;51.178;4.450;2024-02-14T01:42:23;11.30;;;6.20;;
25936;SDS011;13733;51.178;4.450;2024-02-14T01:44:49;8.27;;;5.95;;
25936;SDS011;13733;51.178;4.450;2024-02-14T01:47:16;6.55;;;5.78;;
25936;SDS011;13733;51.178;4.450;2024-02-14T01:49:43;9.13;;;6.30;;
25936;SDS011;13733;51.178;4.450;2024-02-14T01:52:10;7.30;;;5.40;;
25936;SDS011;13733;51.178;4.450;2024-02-14T01:54:36;9.45;;;5.55;;
25936;SDS011;13733;51.178;4.450;2024-02-14T01:57:02;8.82;;;5.63;;
25936;SDS011;13733;51.178;4.450;2024-02-14T01:59:30;9.68;;;5.25;;
25936;SDS011;13733;51.178;4.450;2024-02-14T02:01:56;9.88;;;6.03;;
25936;SDS011;13733;51.178;4.450;2024-02-14T02:04:22;10.80;;;5.35;;
25936;SDS011;13733;51.178;4.450;2024-02-14T02:06:48;7.05;;;5.45;;
25936;SDS011;13733;51.178;4.450;2024-02-14T02:09:14;12.05;;;6.70;;
25936;SDS011;13733;51.178;4.450;2024-02-14T02:11:46;10.77;;;6.18;;
25936;SDS011;13733;51.178;4.450;2024-02-14T02:14:14;10.20;;;5.55;;
25936;SDS011;13733;51.178;4.450;2024-02-14T02:16:40;9.68;;;6.50;;
25936;SDS011;13733;51.178;4.450;2024-02-14T02:19:06;10.90;;;7.28;;
25936;SDS011;13733;51.178;4.450;2024-02-14T02:21:37;11.52;;;6.05;;
25936;SDS011;13733;51.178;4.450;2024-02-14T02:24:03;8.20;;;5.90;;
25936;SDS011;13733;51.178;4.450;2024-02-14T02:26:30;11.73;;;6.43;;
25936;SDS011;13733;51.178;4.450;2024-02-14T02:28:56;10.75;;;5.80;;
25936;SDS011;13733;51.178;4.450;2024-02-14T02:31:22;11.98;;;6.47;;
25936;SDS011;13733;51.178;4.450;2024-02-14T02:33:48;9.60;;;5.90;;
25936;SDS011;13733;51.178;4.450;2024-02-14T02:36:15;9.70;;;6.15;;
25936;SDS011;13733;51.178;4.450;2024-02-14T02:38:41;10.55;;;6.20;;
25936;SDS011;13733;51.178;4.450;2024-02-14T02:41:07;7.43;;;5.85;;
25936;SDS011;13733;51.178;4.450;2024-02-14T02:43:33;7.78;;;5.55;;
25936;SDS011;13733;51.178;4.450;2024-02-14T02:45:59;13.00;;;6.28;;
25936;SDS011;13733;51.178;4.450;2024-02-14T02:48:25;9.43;;;6.15;;
25936;SDS011;13733;51.178;4.450;2024-02-14T02:50:51;11.02;;;5.78;;
25936;SDS011;13733;51.178;4.450;2024-02-14T02:53:18;10.23;;;6.40;;
25936;SDS011;13733;51.178;4.450;2024-02-14T02:55:44;8.45;;;5.75;;
25936;SDS011;13733;51.178;4.450;2024-02-14T02:58:11;11.50;;;5.57;;
25936;SDS011;13733;51.178;4.450;2024-02-14T03:00:37;6.97;;;5.47;;
25936;SDS011;13733;51.178;4.450;2024-02-14T03:03:03;9.15;;;5.95;;
25936;SDS011;13733;51.178;4.450;2024-02-14T03:07:59;8.25;;;6.72;;
25936;SDS011;13733;51.178;4.450;2024-02-14T03:10:25;10.18;;;6.72;;
25936;SDS011;13733;51.178;4.450;2024-02-14T03:12:52;10.93;;;7.50;;
25936;SDS011;13733;51.178;4.450;2024-02-14T03:15:18;9.95;;;7.00;;
25936;SDS011;13733;51.178;4.450;2024-02-14T03:17:45;7.60;;;6.55;;
25936;SDS011;13733;51.178;4.450;2024-02-14T03:20:11;16.00;;;7.53;;
25936;SDS011;13733;51.178;4.450;2024-02-14T03:22:42;10.30;;;6.57;;
25936;SDS011;13733;51.178;4.450;2024-02-14T03:25:16;10.27;;;6.75;;
25936;SDS011;13733;51.178;4.450;2024-02-14T03:27:43;10.45;;;6.85;;
25936;SDS011;13733;51.178;4.450;2024-02-14T03:30:13;9.52;;;6.63;;
25936;SDS011;13733;51.178;4.450;2024-02-14T03:32:41;10.35;;;6.57;;
25936;SDS011;13733;51.178;4.450;2024-02-14T03:35:12;11.07;;;7.03;;
25936;SDS011;13733;51.178;4.450;2024-02-14T03:37:41;12.68;;;7.38;;
25936;SDS011;13733;51.178;4.450;2024-02-14T03:40:09;11.25;;;8.15;;
25936;SDS011;13733;51.178;4.450;2024-02-14T03:42:36;11.73;;;7.53;;
25936;SDS011;13733;51.178;4.450;2024-02-14T03:45:05;10.55;;;6.93;;
25936;SDS011;13733;51.178;4.450;2024-02-14T03:47:32;9.25;;;7.10;;
25936;SDS011;13733;51.178;4.450;2024-02-14T03:49:58;10.50;;;6.82;;
25936;SDS011;13733;51.178;4.450;2024-02-14T03:52:25;13.73;;;7.57;;
25936;SDS011;13733;51.178;4.450;2024-02-14T03:54:51;9.10;;;6.57;;
25936;SDS011;13733;51.178;4.450;2024-02-14T03:57:18;9.90;;;6.60;;
25936;SDS011;13733;51.178;4.450;2024-02-14T03:59:44;12.43;;;6.72;;
25936;SDS011;13733;51.178;4.450;2024-02-14T04:02:10;9.60;;;6.72;;
25936;SDS011;13733;51.178;4.450;2024-02-14T04:04:36;8.40;;;6.30;;
25936;SDS011;13733;51.178;4.450;2024-02-14T04:07:03;9.98;;;7.50;;
25936;SDS011;13733;51.178;4.450;2024-02-14T04:09:29;11.05;;;8.00;;
25936;SDS011;13733;51.178;4.450;2024-02-14T04:11:55;8.95;;;7.53;;
25936;SDS011;13733;51.178;4.450;2024-02-14T04:14:21;12.45;;;8.75;;
25936;SDS011;13733;51.178;4.450;2024-02-14T04:16:46;9.45;;;8.32;;
25936;SDS011;13733;51.178;4.450;2024-02-14T04:19:12;11.80;;;8.05;;
25936;SDS011;13733;51.178;4.450;2024-02-14T04:21:38;11.48;;;8.20;;
25936;SDS011;13733;51.178;4.450;2024-02-14T04:24:04;13.45;;;8.20;;
25936;SDS011;13733;51.178;4.450;2024-02-14T04:26:30;13.02;;;8.07;;
25936;SDS011;13733;51.178;4.450;2024-02-14T04:28:55;13.13;;;8.25;;
25936;SDS011;13733;51.178;4.450;2024-02-14T04:31:22;13.13;;;7.55;;
25936;SDS011;13733;51.178;4.450;2024-02-14T04:33:48;9.80;;;7.78;;
25936;SDS011;13733;51.178;4.450;2024-02-14T04:36:19;12.55;;;8.13;;
25936;SDS011;13733;51.178;4.450;2024-02-14T04:38:46;10.25;;;7.97;;
25936;SDS011;13733;51.178;4.450;2024-02-14T04:41:13;13.52;;;8.20;;
25936;SDS011;13733;51.178;4.450;2024-02-14T04:43:39;12.27;;;8.57;;
25936;SDS011;13733;51.178;4.450;2024-02-14T04:46:06;15.02;;;8.10;;
25936;SDS011;13733;51.178;4.450;2024-02-14T04:48:34;9.13;;;7.75;;
25936;SDS011;13733;51.178;4.450;2024-02-14T04:51:02;13.23;;;7.90;;
25936;SDS011;13733;51.178;4.450;2024-02-14T04:53:28;14.32;;;8.27;;
25936;SDS011;13733;51.178;4.450;2024-02-14T04:55:54;11.93;;;7.82;;
25936;SDS011;13733;51.178;4.450;2024-02-14T04:58:20;11.90;;;7.40;;
25936;SDS011;13733;51.178;4.450;2024-02-14T05:00:46;12.48;;;7.88;;
25936;SDS011;13733;51.178;4.450;2024-02-14T05:03:12;11.07;;;7.47;;
25936;SDS011;13733;51.178;4.450;2024-02-14T05:05:37;12.23;;;7.80;;
25936;SDS011;13733;51.178;4.450;2024-02-14T05:08:03;13.25;;;7.82;;
25936;SDS011;13733;51.178;4.450;2024-02-14T05:10:30;9.85;;;7.78;;
25936;SDS011;13733;51.178;4.450;2024-02-14T05:12:56;17.23;;;8.23;;
25936;SDS011;13733;51.178;4.450;2024-02-14T05:15:23;13.85;;;7.82;;
25936;SDS011;13733;51.178;4.450;2024-02-14T05:17:49;14.68;;;8.15;;
25936;SDS011;13733;51.178;4.450;2024-02-14T05:20:15;16.90;;;9.13;;
25936;SDS011;13733;51.178;4.450;2024-02-14T05:22:41;14.48;;;9.02;;
25936;SDS011;13733;51.178;4.450;2024-02-14T05:25:08;16.45;;;9.00;;
25936;SDS011;13733;51.178;4.450;2024-02-14T05:27:35;12.52;;;8.32;;
25936;SDS011;13733;51.178;4.450;2024-02-14T05:30:01;12.02;;;8.05;;
25936;SDS011;13733;51.178;4.450;2024-02-14T05:32:33;12.82;;;7.40;;
25936;SDS011;13733;51.178;4.450;2024-02-14T05:34:59;10.88;;;7.35;;
25936;SDS011;13733;51.178;4.450;2024-02-14T05:37:25;11.95;;;7.07;;
25936;SDS011;13733;51.178;4.450;2024-02-14T05:39:54;13.02;;;7.03;;
25936;SDS011;13733;51.178;4.450;2024-02-14T05:42:20;15.25;;;7.25;;
25936;SDS011;13733;51.178;4.450;2024-02-14T05:44:46;13.70;;;7.65;;
25936;SDS011;13733;51.178;4.450;2024-02-14T05:47:12;18.10;;;7.47;;
25936;SDS011;13733;51.178;4.450;2024-02-14T05:49:39;14.73;;;7.10;;
25936;SDS011;13733;51.178;4.450;2024-02-14T05:52:08;9.80;;;6.25;;
25936;SDS011;13733;51.178;4.450;2024-02-14T05:54:35;14.88;;;7.68;;
25936;SDS011;13733;51.178;4.450;2024-02-14T05:57:01;9.82;;;6.57;;
25936;SDS011;13733;51.178;4.450;2024-02-14T05:59:30;12.30;;;7.72;;
25936;SDS011;13733;51.178;4.450;2024-02-14T06:01:57;14.43;;;7.85;;
25936;SDS011;13733;51.178;4.450;2024-02-14T06:04:24;15.82;;;7.90;;
25936;SDS011;13733;51.178;4.450;2024-02-14T06:06:50;15.35;;;7.95;;
25936;SDS011;13733;51.178;4.450;2024-02-14T06:09:15;12.18;;;8.35;;
25936;SDS011;13733;51.178;4.450;2024-02-14T06:11:41;16.33;;;8.32;;
25936;SDS011;13733;51.178;4.450;2024-02-14T06:14:08;14.50;;;7.97;;
25936;SDS011;13733;51.178;4.450;2024-02-14T06:16:34;12.40;;;7.95;;
25936;SDS011;13733;51.178;4.450;2024-02-14T06:19:01;12.23;;;7.40;;
25936;SDS011;13733;51.178;4.450;2024-02-14T06:21:30;12.85;;;7.75;;
25936;SDS011;13733;51.178;4.450;2024-02-14T06:23:56;11.60;;;7.88;;
25936;SDS011;13733;51.178;4.450;2024-02-14T06:26:23;13.13;;;8.80;;
25936;SDS011;13733;51.178;4.450;2024-02-14T06:28:49;16.63;;;8.15;;
25936;SDS011;13733;51.178;4.450;2024-02-14T06:31:20;13.52;;;8.15;;
25936;SDS011;13733;51.178;4.450;2024-02-14T06:33:46;14.55;;;7.45;;
25936;SDS011;13733;51.178;4.450;2024-02-14T06:36:13;12.93;;;7.50;;
25936;SDS011;13733;51.178;4.450;2024-02-14T06:38:39;12.63;;;7.43;;
25936;SDS011;13733;51.178;4.450;2024-02-14T06:41:05;15.07;;;7.32;;
25936;SDS011;13733;51.178;4.450;2024-02-14T06:43:31;13.77;;;7.32;;
25936;SDS011;13733;51.178;4.450;2024-02-14T06:45:57;17.45;;;7.47;;
25936;SDS011;13733;51.178;4.450;2024-02-14T06:48:23;11.95;;;6.88;;
25936;SDS011;13733;51.178;4.450;2024-02-14T06:50:52;14.73;;;7.10;;
25936;SDS011;13733;51.178;4.450;2024-02-14T06:53:18;12.15;;;7.40;;
25936;SDS011;13733;51.178;4.450;2024-02-14T06:55:44;13.77;;;8.05;;
25936;SDS011;13733;51.178;4.450;2024-02-14T06:58:10;11.70;;;7.50;;
25936;SDS011;13733;51.178;4.450;2024-02-14T07:00:36;14.52;;;8.20;;
25936;SDS011;13733;51.178;4.450;2024-02-14T07:03:02;13.88;;;8.15;;
25936;SDS011;13733;51.178;4.450;2024-02-14T07:05:28;15.52;;;8.70;;
25936;SDS011;13733;51.178;4.450;2024-02-14T07:07:54;16.17;;;7.22;;
25936;SDS011;13733;51.178;4.450;2024-02-14T07:10:20;18.45;;;8.25;;
25936;SDS011;13733;51.178;4.450;2024-02-14T07:12:46;12.57;;;7.88;;
25936;SDS011;13733;51.178;4.450;2024-02-14T07:15:12;17.88;;;8.02;;
25936;SDS011;13733;51.178;4.450;2024-02-14T07:17:38;15.65;;;7.85;;
25936;SDS011;13733;51.178;4.450;2024-02-14T07:20:05;11.07;;;7.78;;
25936;SDS011;13733;51.178;4.450;2024-02-14T07:22:34;13.27;;;8.77;;
25936;SDS011;13733;51.178;4.450;2024-02-14T07:25:00;11.52;;;6.55;;
25936;SDS011;13733;51.178;4.450;2024-02-14T07:27:27;14.30;;;7.93;;
25936;SDS011;13733;51.178;4.450;2024-02-14T07:29:53;13.15;;;7.68;;
25936;SDS011;13733;51.178;4.450;2024-02-14T07:32:19;11.65;;;7.72;;
25936;SDS011;13733;51.178;4.450;2024-02-14T07:34:45;14.27;;;6.88;;
25936;SDS011;13733;51.178;4.450;2024-02-14T07:37:11;13.27;;;7.18;;
25936;SDS011;13733;51.178;4.450;2024-02-14T07:39:37;12.75;;;6.95;;
25936;SDS011;13733;51.178;4.450;2024-02-14T07:42:03;15.43;;;6.75;;
25936;SDS011;13733;51.178;4.450;2024-02-14T07:44:30;20.17;;;6.65;;
25936;SDS011;13733;51.178;4.450;2024-02-14T07:46:56;14.07;;;6.60;;
25936;SDS011;13733;51.178;4.450;2024-02-14T07:49:22;12.90;;;5.75;;
25936;SDS011;13733;51.178;4.450;2024-02-14T07:51:48;13.05;;;6.47;;
25936;SDS011;13733;51.178;4.450;2024-02-14T07:54:13;11.35;;;5.97;;
25936;SDS011;13733;51.178;4.450;2024-02-14T07:56:39;13.13;;;6.88;;
25936;SDS011;13733;51.178;4.450;2024-02-14T07:59:05;15.35;;;7.38;;
25936;SDS011;13733;51.178;4.450;2024-02-14T08:01:31;12.90;;;6.93;;
25936;SDS011;13733;51.178;4.450;2024-02-14T08:03:57;16.73;;;7.15;;
25936;SDS011;13733;51.178;4.450;2024-02-14T08:06:23;13.23;;;7.68;;
25936;SDS011;13733;51.178;4.450;2024-02-14T08:08:50;14.27;;;7.88;;
25936;SDS011;13733;51.178;4.450;2024-02-14T08:11:22;12.60;;;6.88;;
25936;SDS011;13733;51.178;4.450;2024-02-14T08:13:48;16.38;;;7.90;;
25936;SDS011;13733;51.178;4.450;2024-02-14T08:16:14;13.32;;;8.25;;
25936;SDS011;13733;51.178;4.450;2024-02-14T08:18:39;14.50;;;7.88;;
25936;SDS011;13733;51.178;4.450;2024-02-14T08:21:06;11.48;;;6.93;;
25936;SDS011;13733;51.178;4.450;2024-02-14T08:23:32;16.23;;;7.93;;
25936;SDS011;13733;51.178;4.450;2024-02-14T08:25:59;13.40;;;6.90;;
25936;SDS011;13733;51.178;4.450;2024-02-14T08:28:25;12.00;;;6.38;;
25936;SDS011;13733;51.178;4.450;2024-02-14T08:30:51;10.95;;;6.80;;
25936;SDS011;13733;51.178;4.450;2024-02-14T08:33:17;13.35;;;6.88;;
25936;SDS011;13733;51.178;4.450;2024-02-14T08:35:43;12.73;;;7.07;;
25936;SDS011;13733;51.178;4.450;2024-02-14T08:38:09;11.00;;;6.22;;
25936;SDS011;13733;51.178;4.450;2024-02-14T08:40:34;11.77;;;6.10;;
25936;SDS011;13733;51.178;4.450;2024-02-14T08:43:00;16.27;;;5.57;;
25936;SDS011;13733;51.178;4.450;2024-02-14T08:45:26;15.23;;;6.55;;
25936;SDS011;13733;51.178;4.450;2024-02-14T08:47:55;10.98;;;6.03;;
25936;SDS011;13733;51.178;4.450;2024-02-14T08:50:20;10.57;;;6.60;;
25936;SDS011;13733;51.178;4.450;2024-02-14T08:52:46;10.77;;;6.50;;
25936;SDS011;13733;51.178;4.450;2024-02-14T08:55:12;12.00;;;6.10;;
25936;SDS011;13733;51.178;4.450;2024-02-14T08:57:42;13.43;;;6.18;;
25936;SDS011;13733;51.178;4.450;2024-02-14T09:00:08;12.68;;;6.82;;
25936;SDS011;13733;51.178;4.450;2024-02-14T09:02:36;13.43;;;6.57;;
25936;SDS011;13733;51.178;4.450;2024-02-14T09:05:02;14.07;;;7.10;;
25936;SDS011;13733;51.178;4.450;2024-02-14T09:07:31;11.75;;;6.85;;
25936;SDS011;13733;51.178;4.450;2024-02-14T09:09:59;13.30;;;7.55;;
25936;SDS011;13733;51.178;4.450;2024-02-14T09:12:25;16.67;;;7.95;;
25936;SDS011;13733;51.178;4.450;2024-02-14T09:14:50;12.68;;;7.10;;
25936;SDS011;13733;51.178;4.450;2024-02-14T09:17:16;14.68;;;7.38;;
25936;SDS011;13733;51.178;4.450;2024-02-14T09:19:42;15.60;;;7.70;;
25936;SDS011;13733;51.178;4.450;2024-02-14T09:22:08;11.95;;;7.10;;
25936;SDS011;13733;51.178;4.450;2024-02-14T09:24:33;12.73;;;6.75;;
25936;SDS011;13733;51.178;4.450;2024-02-14T09:26:59;13.43;;;6.93;;
25936;SDS011;13733;51.178;4.450;2024-02-14T09:29:27;10.52;;;6.40;;
25936;SDS011;13733;51.178;4.450;2024-02-14T09:31:54;13.05;;;7.03;;
25936;SDS011;13733;51.178;4.450;2024-02-14T09:34:20;17.88;;;7.47;;
25936;SDS011;13733;51.178;4.450;2024-02-14T09:36:49;12.20;;;6.97;;
25936;SDS011;13733;51.178;4.450;2024-02-14T09:39:15;14.63;;;7.35;;
25936;SDS011;13733;51.178;4.450;2024-02-14T09:41:43;15.23;;;6.50;;
25936;SDS011;13733;51.178;4.450;2024-02-14T09:44:12;14.95;;;6.85;;
25936;SDS011;13733;51.178;4.450;2024-02-14T09:46:40;13.63;;;7.15;;
25936;SDS011;13733;51.178;4.450;2024-02-14T09:49:07;13.05;;;7.05;;
25936;SDS011;13733;51.178;4.450;2024-02-14T09:51:34;12.27;;;6.82;;
25936;SDS011;13733;51.178;4.450;2024-02-14T09:54:01;11.43;;;7.07;;
25936;SDS011;13733;51.178;4.450;2024-02-14T09:56:28;11.82;;;6.85;;
25936;SDS011;13733;51.178;4.450;2024-02-14T09:58:55;12.05;;;6.35;;
25936;SDS011;13733;51.178;4.450;2024-02-14T10:01:24;8.80;;;5.60;;
25936;SDS011;13733;51.178;4.450;2024-02-14T10:03:51;15.23;;;6.22;;
25936;SDS011;13733;51.178;4.450;2024-02-14T10:06:17;8.43;;;5.65;;
25936;SDS011;13733;51.178;4.450;2024-02-14T10:08:46;7.72;;;6.05;;
25936;SDS011;13733;51.178;4.450;2024-02-14T10:11:14;10.90;;;5.95;;
25936;SDS011;13733;51.178;4.450;2024-02-14T10:13:40;11.15;;;6.30;;
25936;SDS011;13733;51.178;4.450;2024-02-14T10:16:10;7.60;;;5.45;;
25936;SDS011;13733;51.178;4.450;2024-02-14T10:18:38;6.47;;;4.88;;
25936;SDS011;13733;51.178;4.450;2024-02-14T10:21:04;12.40;;;5.80;;
25936;SDS011;13733;51.178;4.450;2024-02-14T10:23:30;6.25;;;4.38;;
25936;SDS011;13733;51.178;4.450;2024-02-14T10:25:57;8.55;;;4.38;;
25936;SDS011;13733;51.178;4.450;2024-02-14T10:28:23;6.22;;;4.25;;
25936;SDS011;13733;51.178;4.450;2024-02-14T10:30:49;6.20;;;4.60;;
25936;SDS011;13733;51.178;4.450;2024-02-14T10:33:15;4.95;;;3.80;;
25936;SDS011;13733;51.178;4.450;2024-02-14T10:35:42;5.68;;;4.35;;
25936;SDS011;13733;51.178;4.450;2024-02-14T10:38:09;8.75;;;4.25;;
25936;SDS011;13733;51.178;4.450;2024-02-14T10:40:36;7.35;;;4.38;;
25936;SDS011;13733;51.178;4.450;2024-02-14T10:43:08;7.35;;;4.15;;
25936;SDS011;13733;51.178;4.450;2024-02-14T10:45:37;6.72;;;3.95;;
25936;SDS011;13733;51.178;4.450;2024-02-14T10:48:05;9.02;;;4.63;;
25936;SDS011;13733;51.178;4.450;2024-02-14T10:50:33;5.57;;;4.47;;
25936;SDS011;13733;51.178;4.450;2024-02-14T10:53:04;5.72;;;4.75;;
25936;SDS011;13733;51.178;4.450;2024-02-14T10:55:33;5.25;;;4.53;;
25936;SDS011;13733;51.178;4.450;2024-02-14T10:58:01;5.13;;;4.45;;
25936;SDS011;13733;51.178;4.450;2024-02-14T11:00:28;6.55;;;4.95;;
25936;SDS011;13733;51.178;4.450;2024-02-14T11:02:55;8.25;;;4.47;;
25936;SDS011;13733;51.178;4.450;2024-02-14T11:05:21;5.10;;;4.22;;
25936;SDS011;13733;51.178;4.450;2024-02-14T11:07:49;5.57;;;4.03;;
25936;SDS011;13733;51.178;4.450;2024-02-14T11:10:18;6.63;;;4.00;;
25936;SDS011;13733;51.178;4.450;2024-02-14T11:12:46;4.70;;;3.65;;
25936;SDS011;13733;51.178;4.450;2024-02-14T11:15:21;5.47;;;3.30;;
25936;SDS011;13733;51.178;4.450;2024-02-14T11:17:49;6.13;;;4.30;;
25936;SDS011;13733;51.178;4.450;2024-02-14T11:20:21;4.95;;;3.80;;
25936;SDS011;13733;51.178;4.450;2024-02-14T11:22:56;6.35;;;3.47;;
25936;SDS011;13733;51.178;4.450;2024-02-14T11:25:29;8.60;;;3.78;;
25936;SDS011;13733;51.178;4.450;2024-02-14T11:28:00;4.38;;;3.85;;
25936;SDS011;13733;51.178;4.450;2024-02-14T11:30:31;7.00;;;4.00;;
25936;SDS011;13733;51.178;4.450;2024-02-14T11:33:15;6.07;;;3.90;;
25936;SDS011;13733;51.178;4.450;2024-02-14T11:35:41;7.10;;;4.15;;
25936;SDS011;13733;51.178;4.450;2024-02-14T11:38:08;5.75;;;4.30;;
25936;SDS011;13733;51.178;4.450;2024-02-14T11:40:34;4.60;;;3.95;;
25936;SDS011;13733;51.178;4.450;2024-02-14T11:43:01;5.03;;;4.25;;
25936;SDS011;13733;51.178;4.450;2024-02-14T11:45:28;5.28;;;3.90;;
25936;SDS011;13733;51.178;4.450;2024-02-14T11:47:54;6.20;;;4.40;;
25936;SDS011;13733;51.178;4.450;2024-02-14T11:50:20;4.60;;;3.97;;
25936;SDS011;13733;51.178;4.450;2024-02-14T11:52:46;6.82;;;4.30;;
25936;SDS011;13733;51.178;4.450;2024-02-14T11:55:12;5.30;;;4.50;;
25936;SDS011;13733;51.178;4.450;2024-02-14T11:57:40;5.75;;;4.15;;
25936;SDS011;13733;51.178;4.450;2024-02-14T12:00:07;4.88;;;4.05;;
25936;SDS011;13733;51.178;4.450;2024-02-14T12:02:34;5.72;;;3.97;;
25936;SDS011;13733;51.178;4.450;2024-02-14T12:05:01;6.65;;;4.93;;
25936;SDS011;13733;51.178;4.450;2024-02-14T12:07:30;6.05;;;4.63;;
25936;SDS011;13733;51.178;4.450;2024-02-14T12:09:56;6.53;;;5.03;;
25936;SDS011;13733;51.178;4.450;2024-02-14T12:12:22;4.80;;;4.40;;
25936;SDS011;13733;51.178;4.450;2024-02-14T12:14:51;6.70;;;4.80;;
25936;SDS011;13733;51.178;4.450;2024-02-14T12:17:17;7.25;;;5.35;;
25936;SDS011;13733;51.178;4.450;2024-02-14T12:19:49;6.43;;;5.03;;
25936;SDS011;13733;51.178;4.450;2024-02-14T12:22:15;7.50;;;5.55;;
25936;SDS011;13733;51.178;4.450;2024-02-14T12:24:45;7.97;;;5.25;;
25936;SDS011;13733;51.178;4.450;2024-02-14T12:27:12;10.43;;;5.82;;
25936;SDS011;13733;51.178;4.450;2024-02-14T12:29:38;8.88;;;6.20;;
25936;SDS011;13733;51.178;4.450;2024-02-14T12:32:07;9.13;;;5.85;;
25936;SDS011;13733;51.178;4.450;2024-02-14T12:34:34;8.75;;;5.43;;
25936;SDS011;13733;51.178;4.450;2024-02-14T12:37:00;10.80;;;5.78;;
25936;SDS011;13733;51.178;4.450;2024-02-14T12:39:26;12.40;;;6.22;;
25936;SDS011;13733;51.178;4.450;2024-02-14T12:41:52;10.23;;;5.60;;
25936;SDS011;13733;51.178;4.450;2024-02-14T12:44:18;8.40;;;5.90;;
25936;SDS011;13733;51.178;4.450;2024-02-14T12:46:44;10.88;;;6.10;;
25936;SDS011;13733;51.178;4.450;2024-02-14T12:49:10;14.15;;;7.15;;
25936;SDS011;13733;51.178;4.450;2024-02-14T12:51:36;8.68;;;5.80;;
25936;SDS011;13733;51.178;4.450;2024-02-14T12:54:03;8.70;;;6.32;;
25936;SDS011;13733;51.178;4.450;2024-02-14T12:56:30;13.50;;;6.25;;
25936;SDS011;13733;51.178;4.450;2024-02-14T12:58:57;12.93;;;7.18;;
25936;SDS011;13733;51.178;4.450;2024-02-14T13:01:24;10.73;;;6.78;;
25936;SDS011;13733;51.178;4.450;2024-02-14T13:03:50;12.02;;;6.78;;
25936;SDS011;13733;51.178;4.450;2024-02-14T13:06:16;10.43;;;6.20;;
25936;SDS011;13733;51.178;4.450;2024-02-14T13:08:42;10.02;;;6.80;;
25936;SDS011;13733;51.178;4.450;2024-02-14T13:11:07;8.80;;;5.97;;
25936;SDS011;13733;51.178;4.450;2024-02-14T13:13:34;13.45;;;7.28;;
25936;SDS011;13733;51.178;4.450;2024-02-14T13:16:00;10.23;;;6.28;;
25936;SDS011;13733;51.178;4.450;2024-02-14T13:18:26;9.15;;;6.47;;
25936;SDS011;13733;51.178;4.450;2024-02-14T13:20:52;13.60;;;6.95;;
25936;SDS011;13733;51.178;4.450;2024-02-14T13:23:24;9.82;;;6.38;;
25936;SDS011;13733;51.178;4.450;2024-02-14T13:25:50;14.82;;;6.50;;
25936;SDS011;13733;51.178;4.450;2024-02-14T13:28:17;9.25;;;6.05;;
25936;SDS011;13733;51.178;4.450;2024-02-14T13:30:43;9.52;;;6.65;;
25936;SDS011;13733;51.178;4.450;2024-02-14T13:33:12;15.25;;;6.88;;
25936;SDS011;13733;51.178;4.450;2024-02-14T13:35:39;10.32;;;6.30;;
25936;SDS011;13733;51.178;4.450;2024-02-14T13:38:05;10.88;;;6.50;;
25936;SDS011;13733;51.178;4.450;2024-02-14T13:40:31;11.82;;;6.82;;
25936;SDS011;13733;51.178;4.450;2024-02-14T13:42:57;14.32;;;7.57;;
25936;SDS011;13733;51.178;4.450;2024-02-14T13:45:23;10.80;;;6.30;;
25936;SDS011;13733;51.178;4.450;2024-02-14T13:47:49;12.95;;;6.93;;
25936;SDS011;13733;51.178;4.450;2024-02-14T13:50:16;9.43;;;5.90;;
25936;SDS011;13733;51.178;4.450;2024-02-14T13:52:42;8.38;;;4.63;;
25936;SDS011;13733;51.178;4.450;2024-02-14T13:55:08;10.55;;;5.55;;
25936;SDS011;13733;51.178;4.450;2024-02-14T13:57:36;10.35;;;5.60;;
25936;SDS011;13733;51.178;4.450;2024-02-14T14:00:06;10.30;;;5.75;;
25936;SDS011;13733;51.178;4.450;2024-02-14T14:02:39;8.80;;;5.18;;
25936;SDS011;13733;51.178;4.450;2024-02-14T14:05:09;13.77;;;6.25;;
25936;SDS011;13733;51.178;4.450;2024-02-14T14:07:38;13.32;;;5.32;;
25936;SDS011;13733;51.178;4.450;2024-02-14T14:10:05;8.48;;;5.25;;
25936;SDS011;13733;51.178;4.450;2024-02-14T14:12:31;6.68;;;4.32;;
25936;SDS011;13733;51.178;4.450;2024-02-14T14:14:57;6.90;;;4.40;;
25936;SDS011;13733;51.178;4.450;2024-02-14T14:17:23;12.52;;;4.60;;
25936;SDS011;13733;51.178;4.450;2024-02-14T14:19:49;9.43;;;4.75;;
25936;SDS011;13733;51.178;4.450;2024-02-14T14:22:15;6.63;;;4.55;;
25936;SDS011;13733;51.178;4.450;2024-02-14T14:24:42;6.85;;;4.35;;
25936;SDS011;13733;51.178;4.450;2024-02-14T14:27:08;6.70;;;3.83;;
25936;SDS011;13733;51.178;4.450;2024-02-14T14:32:11;6.20;;;4.00;;
25936;SDS011;13733;51.178;4.450;2024-02-14T14:34:36;7.20;;;4.40;;
25936;SDS011;13733;51.178;4.450;2024-02-14T14:37:02;6.57;;;4.10;;
25936;SDS011;13733;51.178;4.450;2024-02-14T14:39:28;7.80;;;4.32;;
25936;SDS011;13733;51.178;4.450;2024-02-14T14:41:54;10.13;;;4.10;;